Time;durP1;ratioP1;P1;durP2;ratioP2;P2;SDS_P1;SDS_P2;PMS_P1;PMS_P2;Temp;Humidity;BMP_temperature;BMP_pressure;BME280_temperature;BME280_humidity;BME280_pressure;Samples;Min_cycle;Max_cycle;Signal;HPM_P1;HPM_P2
2024/04/10 00:01:49;;;;;;;;;;;;;;;-144.99;86.76;52509.25;5336010;26;20460;-68
2024/04/10 00:04:17;;;;;;;;;;;;;;;-144.99;86.19;52501.09;5363283;26;19930;-69
2024/04/10 00:06:43;;;;;;;;;;;;;;;-144.99;86.61;52484.78;5345391;26;20257;-70
2024/04/10 00:09:12;;;;;;;;;;;;;;;-144.99;86.70;52476.63;5352890;26;19965;-69
2024/04/10 00:11:38;;;;;;;;;;;;;;;-144.99;86.62;52476.63;5360219;26;19934;-69
2024/04/10 00:14:09;;;;;;;;;;;;;;;-144.99;86.20;52476.63;5347645;26;19944;-69
2024/04/10 00:16:35;;;;;;;;;;;;;;;-144.99;86.20;52484.78;5359630;26;20000;-69
2024/04/10 00:19:04;;;;;;;;;;;;;;;-144.99;86.13;52456.25;5348662;26;19930;-68
2024/04/10 00:21:32;;;;;;;;;;;;;;;-144.99;86.26;52480.72;5361394;26;20251;-68
2024/04/10 00:24:01;;;;;;;;;;;;;;;-144.99;85.74;52486.81;5342213;26;19930;-68
2024/04/10 00:26:27;;;;;;;;;;;;;;;-144.99;85.70;52505.16;5353886;26;20446;-68
2024/04/10 00:28:55;;;;;;;;;;;;;;;-144.99;86.06;52472.56;5349244;26;19930;-68
2024/04/10 00:31:24;;;;;;;;;;;;;;;-144.99;85.90;52492.94;5341245;26;19936;-68
2024/04/10 00:33:52;;;;;;;;;;;;;;;-144.99;85.32;52468.47;5367594;26;19929;-69
2024/04/10 00:36:19;;;;;;;;;;;;;;;-144.99;85.54;52488.84;5358500;26;20387;-61
2024/04/10 00:38:47;;;;;;;;;;;;;;;-144.99;85.95;52456.25;5357899;26;20383;-61
2024/04/10 00:41:14;;;;;;;;;;;;;;;-144.99;85.67;52492.94;5349271;26;20048;-61
2024/04/10 00:43:44;;;;;;;;;;;;;;;-144.99;86.16;52474.59;5355910;26;19929;-64
2024/04/10 00:46:13;;;;;;;;;;;;;;;-144.99;86.33;52480.72;5359000;26;19938;-63
2024/04/10 00:48:45;;;;;;;;;;;;;;;-144.99;85.89;52490.91;5345968;26;20448;-64
2024/04/10 00:51:11;;;;;;;;;;;;;;;-144.99;85.95;52488.84;5365118;26;19936;-65
2024/04/10 00:53:40;;;;;;;;;;;;;;;-144.99;86.36;52501.09;5356927;26;19929;-65
2024/04/10 00:56:06;;;;;;;;;;;;;;;-144.99;86.16;52505.16;5349768;26;19995;-64
2024/04/10 00:58:35;;;;;;;;;;;;;;;-144.99;86.90;52452.16;5350396;26;20011;-65
2024/04/10 01:01:01;;;;;;;;;;;;;;;-144.99;87.05;52478.66;5346790;26;20324;-64
2024/04/10 01:03:30;;;;;;;;;;;;;;;-144.99;87.45;52517.41;5343809;26;20344;-64
2024/04/10 01:06:00;;;;;;;;;;;;;;;-144.99;86.90;52480.72;5367971;26;19954;-64
2024/04/10 01:08:29;;;;;;;;;;;;;;;-144.99;86.83;52464.41;5341923;26;19930;-64
2024/04/10 01:10:55;;;;;;;;;;;;;;;-144.99;87.18;52488.84;5353721;26;19987;-65
2024/04/10 01:13:23;;;;;;;;;;;;;;;-144.99;87.03;52492.94;5372084;26;19938;-64
2024/04/10 01:15:49;;;;;;;;;;;;;;;-144.99;87.18;52480.72;5349383;26;19931;-65
2024/04/10 01:18:18;;;;;;;;;;;;;;;-144.99;87.76;52484.78;5371347;26;20420;-64
2024/04/10 01:20:44;;;;;;;;;;;;;;;-144.99;88.53;52484.78;5350074;26;20377;-63
2024/04/10 01:23:15;;;;;;;;;;;;;;;-144.99;89.23;52501.09;5362824;26;19934;-64
2024/04/10 01:25:41;;;;;;;;;;;;;;;-144.99;89.42;52513.31;5354325;26;20309;-64
2024/04/10 01:28:10;;;;;;;;;;;;;;;-144.99;89.74;52497.00;5348141;26;19934;-60
2024/04/10 01:30:36;;;;;;;;;;;;;;;-144.99;89.63;52488.84;5360273;26;19930;-60
2024/04/10 01:33:04;;;;;;;;;;;;;;;-144.99;89.63;52452.16;5351700;26;19930;-59
2024/04/10 01:35:30;;;;;;;;;;;;;;;-144.99;89.84;52441.97;5344689;26;20112;-61
2024/04/10 01:37:59;;;;;;;;;;;;;;;-144.99;89.26;52472.56;5371164;26;19930;-67
2024/04/10 01:40:28;;;;;;;;;;;;;;;-144.99;89.43;52497.00;5358704;26;20360;-66
2024/04/10 01:42:56;;;;;;;;;;;;;;;-144.99;89.65;52482.75;5345608;26;20276;-71
2024/04/10 01:45:22;;;;;;;;;;;;;;;-144.99;88.72;52472.56;5369132;26;20004;-67
2024/04/10 01:47:51;;;;;;;;;;;;;;;-144.99;88.35;52521.47;5357793;26;19930;-67
2024/04/10 01:50:17;;;;;;;;;;;;;;;-144.99;88.49;52503.13;5360223;26;19937;-67
2024/04/10 01:52:45;;;;;;;;;;;;;;;-144.99;88.57;52435.88;5356468;26;20335;-68
2024/04/10 01:55:11;;;;;;;;;;;;;;;-144.99;89.56;52456.25;5363913;26;20401;-67
2024/04/10 01:57:42;;;;;;;;;;;;;;;-144.99;91.31;52515.34;5339693;26;19938;-67
2024/04/10 02:00:10;;;;;;;;;;;;;;;-144.99;93.15;52501.09;5342166;26;20237;-67
2024/04/10 02:02:38;;;;;;;;;;;;;;;-144.99;95.39;52490.91;5347388;26;19929;-66
2024/04/10 02:05:04;;;;;;;;;;;;;;;-144.99;97.93;52452.16;5354832;26;20426;-66
2024/04/10 02:07:33;;;;;;;;;;;;;;;-144.99;99.55;52497.00;5350337;26;20008;-65
2024/04/10 02:09:59;;;;;;;;;;;;;;;-144.99;100.00;52488.84;5346165;26;20363;-66
2024/04/10 02:12:27;;;;;;;;;;;;;;;-144.99;100.00;52501.09;5345094;26;19930;-69
2024/04/10 02:14:56;;;;;;;;;;;;;;;-144.99;100.00;52456.25;5343122;26;20326;-67
2024/04/10 02:17:24;;;;;;;;;;;;;;;-144.99;100.00;52490.91;5344967;26;19936;-68
2024/04/10 02:19:51;;;;;;;;;;;;;;;-144.99;100.00;52501.09;5346622;26;20299;-68
2024/04/10 02:22:19;;;;;;;;;;;;;;;-144.99;100.00;52521.47;5343175;26;20370;-68
2024/04/10 02:24:45;;;;;;;;;;;;;;;-144.99;100.00;52482.75;5365024;26;19933;-68
2024/04/10 02:27:14;;;;;;;;;;;;;;;-144.99;100.00;52488.84;5353018;26;19937;-65
2024/04/10 02:29:40;;;;;;;;;;;;;;;-144.99;100.00;52478.66;5346476;26;19972;-65
2024/04/10 02:32:11;;;;;;;;;;;;;;;-144.99;100.00;52513.31;5357012;26;19938;-66
2024/04/10 02:34:37;;;;;;;;;;;;;;;-144.99;100.00;52480.72;5369125;26;20448;-68
2024/04/10 02:37:06;;;;;;;;;;;;;;;-144.99;100.00;52513.31;5348332;26;19930;-67
2024/04/10 02:39:31;;;;;;;;;;;;;;;-144.99;100.00;52452.16;5342595;26;20259;-65
2024/04/10 02:42:00;;;;;;;;;;;;;;;-144.99;100.00;52484.78;5346573;26;20096;-65
2024/04/10 02:44:26;;;;;;;;;;;;;;;-144.99;100.00;52499.06;5352527;26;20061;-65
2024/04/10 02:46:55;;;;;;;;;;;;;;;-144.99;100.00;52492.94;5353058;26;20087;-70
2024/04/10 02:49:23;;;;;;;;;;;;;;;-144.99;100.00;52488.84;5344403;26;19929;-70
2024/04/10 02:51:52;;;;;;;;;;;;;;;-144.99;100.00;52523.50;5370908;26;20368;-69
2024/04/10 02:54:18;;;;;;;;;;;;;;;-144.99;100.00;52490.91;5343184;26;19949;-69
2024/04/10 02:56:47;;;;;;;;;;;;;;;-144.99;100.00;52474.59;5346538;26;19937;-70
2024/04/10 02:59:13;;;;;;;;;;;;;;;-144.99;100.00;52488.84;5340101;26;19936;-69
2024/04/10 03:01:41;;;;;;;;;;;;;;;-144.99;100.00;52480.72;5342213;26;19942;-71
2024/04/10 03:04:07;;;;;;;;;;;;;;;-144.99;100.00;52499.06;5349050;26;20335;-72
2024/04/10 03:06:39;;;;;;;;;;;;;;;-144.99;100.00;52476.63;5366129;26;20003;-73
2024/04/10 03:09:05;;;;;;;;;;;;;;;-144.99;100.00;52497.00;5357646;26;19977;-72
2024/04/10 03:11:33;;;;;;;;;;;;;;;-144.99;100.00;52482.75;5348816;26;19957;-72
2024/04/10 03:13:59;;;;;;;;;;;;;;;-144.99;100.00;52450.13;5354242;26;19938;-72
2024/04/10 03:16:28;;;;;;;;;;;;;;;-144.99;100.00;52501.09;5364952;26;20412;-72
2024/04/10 03:18:54;;;;;;;;;;;;;;;-144.99;100.00;52472.56;5356852;26;19954;-70
2024/04/10 03:21:22;;;;;;;;;;;;;;;-144.99;100.00;52490.91;5353420;26;20454;-69
2024/04/10 03:23:51;;;;;;;;;;;;;;;-144.99;100.00;52482.75;5367349;26;19930;-64
2024/04/10 03:26:19;;;;;;;;;;;;;;;-144.99;100.00;52476.63;5359202;26;19988;-64
2024/04/10 03:28:45;;;;;;;;;;;;;;;-144.99;100.00;52444.03;5354359;26;20423;-64
2024/04/10 03:31:15;;;;;;;;;;;;;;;-144.99;100.00;52476.63;5357875;26;19952;-63
2024/04/10 03:33:41;;;;;;;;;;;;;;;-144.99;100.00;52505.16;5367411;26;20409;-64
2024/04/10 03:36:09;;;;;;;;;;;;;;;-144.99;100.00;52476.63;5346265;26;20027;-65
2024/04/10 03:38:35;;;;;;;;;;;;;;;-144.99;100.00;52480.72;5354494;26;19957;-66
2024/04/10 03:41:06;;;;;;;;;;;;;;;-144.99;100.00;52513.31;5349867;26;20008;-63
2024/04/10 03:43:35;;;;;;;;;;;;;;;-144.99;100.00;52488.84;5345145;26;19953;-64
2024/04/10 03:46:02;;;;;;;;;;;;;;;-144.99;100.00;52511.28;5356185;26;19937;-64
2024/04/10 03:48:30;;;;;;;;;;;;;;;-144.99;100.00;52460.31;5351425;26;19936;-67
2024/04/10 03:51:02;;;;;;;;;;;;;;;-144.99;100.00;52476.63;5356519;26;19936;-64
2024/04/10 03:53:28;;;;;;;;;;;;;;;-144.99;100.00;52460.31;5345863;26;19937;-64
2024/04/10 03:55:57;;;;;;;;;;;;;;;-144.99;100.00;52472.56;5352366;26;19934;-64
2024/04/10 03:58:26;;;;;;;;;;;;;;;-144.99;100.00;52458.28;5343316;26;20228;-64
2024/04/10 04:00:54;;;;;;;;;;;;;;;-144.99;100.00;52501.09;5343882;26;19930;-64
2024/04/10 04:03:20;;;;;;;;;;;;;;;-144.99;100.00;52488.84;5350493;26;19936;-63
2024/04/10 04:05:49;;;;;;;;;;;;;;;-144.99;100.00;52480.72;5355751;26;19930;-63
2024/04/10 04:08:15;;;;;;;;;;;;;;;-144.99;100.00;52511.28;5352755;26;19933;-64
2024/04/10 04:10:45;;;;;;;;;;;;;;;-144.99;100.00;52505.16;5357663;26;19937;-64
2024/04/10 04:13:11;;;;;;;;;;;;;;;-144.99;100.00;52468.47;5357485;26;19933;-64
2024/04/10 04:15:44;;;;;;;;;;;;;;;-144.99;100.00;52468.47;5360692;26;20004;-69
2024/04/10 04:18:09;;;;;;;;;;;;;;;-144.99;100.00;52448.09;5355902;26;20219;-69
2024/04/10 04:20:38;;;;;;;;;;;;;;;-144.99;100.00;52464.41;5344175;26;19941;-69
2024/04/10 04:23:04;;;;;;;;;;;;;;;-144.99;100.00;52462.34;5373709;26;19933;-69
2024/04/10 04:25:33;;;;;;;;;;;;;;;-144.99;100.00;52497.00;5345695;26;19934;-69
2024/04/10 04:27:59;;;;;;;;;;;;;;;-144.99;100.00;52478.66;5348761;26;19934;-69
2024/04/10 04:30:28;;;;;;;;;;;;;;;-144.99;100.00;52484.78;5353359;26;19936;-70
2024/04/10 04:32:56;;;;;;;;;;;;;;;-144.99;100.00;52468.47;5351826;26;19930;-69
2024/04/10 04:35:25;;;;;;;;;;;;;;;-144.99;100.00;52468.47;5337461;26;20384;-68
2024/04/10 04:37:55;;;;;;;;;;;;;;;-144.99;100.00;52470.50;5347649;26;19937;-68
2024/04/10 04:40:23;;;;;;;;;;;;;;;-144.99;100.00;52476.63;5356810;26;19936;-68
2024/04/10 04:42:49;;;;;;;;;;;;;;;-144.99;100.00;52505.16;5349649;26;20245;-68
2024/04/10 04:45:18;;;;;;;;;;;;;;;-144.99;100.00;52501.09;5360819;26;19929;-69
2024/04/10 04:47:44;;;;;;;;;;;;;;;-144.99;100.00;52501.09;5417597;21;19953;-70
2024/04/10 04:50:15;;;;;;;;;;;;;;;-144.99;100.00;52472.56;5388192;26;19945;-70
2024/04/10 04:52:41;;;;;;;;;;;;;;;-144.99;100.00;52468.47;5387426;26;19929;-70
2024/04/10 04:55:11;;;;;;;;;;;;;;;-144.99;100.00;52517.41;5376135;26;20497;-70
2024/04/10 04:57:37;;;;;;;;;;;;;;;-144.99;100.00;52499.06;5389283;26;19930;-70
2024/04/10 05:00:11;;;;;;;;;;;;;;;-144.99;100.00;52501.09;5385853;26;19982;-70
2024/04/10 05:02:38;;;;;;;;;;;;;;;-144.99;100.00;52468.47;5388647;26;19937;-70
2024/04/10 05:05:06;;;;;;;;;;;;;;;-144.99;100.00;52476.63;5383453;26;19930;-70
2024/04/10 05:07:35;;;;;;;;;;;;;;;-144.99;100.00;52470.50;5392590;26;19945;-71
2024/04/10 05:10:03;;;;;;;;;;;;;;;-144.99;100.00;52497.00;5373695;26;19957;-71
2024/04/10 05:12:29;;;;;;;;;;;;;;;-144.99;100.00;52460.31;5391958;26;20109;-71
2024/04/10 05:14:58;;;;;;;;;;;;;;;-144.99;100.00;52435.88;5376167;26;19929;-70
2024/04/10 05:17:27;;;;;;;;;;;;;;;-144.99;100.00;52444.03;5389926;26;20135;-70
2024/04/10 05:19:53;;;;;;;;;;;;;;;-144.99;100.00;52427.72;5376579;26;19930;-70
2024/04/10 05:22:21;;;;;;;;;;;;;;;-144.99;100.00;52472.56;5390827;26;19929;-70
2024/04/10 05:24:50;;;;;;;;;;;;;;;-144.99;100.00;52464.41;5376153;26;19929;-70
2024/04/10 05:27:25;;;;;;;;;;;;;;;-144.99;100.00;52460.31;5378556;26;20375;-71
2024/04/10 05:29:59;;;;;;;;;;;;;;;-144.99;100.00;52464.41;5403966;26;20352;-70
2024/04/10 05:32:28;;;;;;;;;;;;;;;-144.99;100.00;52507.19;5374242;26;20001;-70
2024/04/10 05:34:54;;;;;;;;;;;;;;;-144.99;100.00;52476.63;5380597;26;19930;-70
2024/04/10 05:37:23;;;;;;;;;;;;;;;-144.99;100.00;52470.50;5374467;26;20351;-70
2024/04/10 05:40:01;;;;;;;;;;;;;;;-144.99;100.00;52427.72;5377540;26;19958;-69
2024/04/10 05:42:29;;;;;;;;;;;;;;;-144.99;100.00;52517.41;5377469;26;19929;-70
2024/04/10 05:44:55;;;;;;;;;;;;;;;-144.99;100.00;52448.09;5382648;26;20342;-70
2024/04/10 05:47:24;;;;;;;;;;;;;;;-144.99;99.45;52509.25;5374748;26;19999;-71
2024/04/10 05:49:50;;;;;;;;;;;;;;;-144.99;99.52;52492.94;5376271;26;19930;-70
2024/04/10 05:52:18;;;;;;;;;;;;;;;-144.99;99.23;52480.72;5390204;26;19999;-71
2024/04/10 05:54:48;;;;;;;;;;;;;;;-144.99;98.38;52492.94;5375961;26;19930;-70
2024/04/10 05:57:21;;;;;;;;;;;;;;;-144.99;98.45;52545.94;5375076;26;19971;-71
2024/04/10 05:59:47;;;;;;;;;;;;;;;-144.99;98.64;52454.22;5386937;26;20323;-70
2024/04/10 06:02:15;;;;;;;;;;;;;;;-144.99;98.58;52448.09;5373818;26;19937;-70
2024/04/10 06:04:41;;;;;;;;;;;;;;;-144.99;99.28;52435.88;5401246;26;20273;-70
2024/04/10 06:07:10;;;;;;;;;;;;;;;-144.99;100.00;52476.63;5386797;26;19929;-68
2024/04/10 06:09:36;;;;;;;;;;;;;;;-144.99;100.00;52448.09;5364286;26;19937;-69
2024/04/10 06:12:04;;;;;;;;;;;;;;;-144.99;100.00;52472.56;5381504;26;19934;-70
2024/04/10 06:14:33;;;;;;;;;;;;;;;-144.99;100.00;52488.84;5392915;26;20010;-70
2024/04/10 06:17:01;;;;;;;;;;;;;;;-144.99;100.00;52439.94;5394312;26;19941;-70
2024/04/10 06:19:27;;;;;;;;;;;;;;;-144.99;100.00;52521.47;5375245;26;19937;-72
2024/04/10 06:21:56;;;;;;;;;;;;;;;-144.99;100.00;52468.47;5375918;26;19998;-69
2024/04/10 06:24:22;;;;;;;;;;;;;;;-144.99;100.00;52460.31;5374483;26;20037;-70
2024/04/10 06:26:51;;;;;;;;;;;;;;;-144.99;100.00;52476.63;5375188;26;19929;-69
2024/04/10 06:29:18;;;;;;;;;;;;;;;-144.99;100.00;52452.16;5374429;26;19930;-69
2024/04/10 06:31:49;;;;;;;;;;;;;;;-144.99;100.00;52462.34;5375493;26;20028;-69
2024/04/10 06:34:15;;;;;;;;;;;;;;;-144.99;100.00;52494.97;5375737;26;19937;-69
2024/04/10 06:36:43;;;;;;;;;;;;;;;-144.99;100.00;52476.63;5374478;26;19938;-70
2024/04/10 06:39:10;;;;;;;;;;;;;;;-144.99;100.00;52460.31;5394009;26;20425;-70
2024/04/10 06:41:39;;;;;;;;;;;;;;;-144.99;100.00;52462.34;5375835;26;19929;-69
2024/04/10 06:44:04;;;;;;;;;;;;;;;-144.99;100.00;52464.41;5374823;26;19994;-69
2024/04/10 06:46:34;;;;;;;;;;;;;;;-144.99;100.00;52480.72;5374557;26;19938;-69
2024/04/10 06:49:02;;;;;;;;;;;;;;;-144.99;100.00;52435.88;5374505;26;19929;-70
2024/04/10 06:51:31;;;;;;;;;;;;;;;-144.99;99.78;52464.41;5376201;26;19940;-70
2024/04/10 06:53:57;;;;;;;;;;;;;;;-144.99;99.16;52492.94;5375943;26;19929;-70
2024/04/10 06:56:26;;;;;;;;;;;;;;;-144.99;97.20;52484.78;5378430;26;19929;-71
2024/04/10 06:58:52;;;;;;;;;;;;;;;-144.99;95.67;52484.78;5380128;26;19945;-70
2024/04/10 07:01:20;;;;;;;;;;;;;;;-144.99;94.13;52446.06;5374702;26;20260;-70
2024/04/10 07:03:47;;;;;;;;;;;;;;;-144.99;93.50;52456.25;5392940;26;19929;-70
2024/04/10 07:06:19;;;;;;;;;;;;;;;-144.99;92.19;52458.28;5378914;26;20275;-70
2024/04/10 07:08:48;;;;;;;;;;;;;;;-144.99;91.30;52472.56;5390778;26;19929;-70
2024/04/10 07:11:16;;;;;;;;;;;;;;;-144.99;90.23;52472.56;5380325;26;20193;-70
2024/04/10 07:13:45;;;;;;;;;;;;;;;-144.99;91.01;52456.25;5386398;26;20384;-70
2024/04/10 07:16:11;;;;;;;;;;;;;;;-144.99;93.80;52431.78;5371608;26;19940;-69
2024/04/10 07:18:39;;;;;;;;;;;;;;;-144.99;95.63;52460.31;5383394;26;19928;-70
2024/04/10 07:21:06;;;;;;;;;;;;;;;-144.99;95.67;52476.63;5394539;26;19936;-70
2024/04/10 07:23:38;;;;;;;;;;;;;;;-144.99;96.43;52456.25;5379840;26;20398;-70
2024/04/10 07:26:12;;;;;;;;;;;;;;;-144.99;96.08;52494.97;5377083;26;20404;-70
2024/04/10 07:28:40;;;;;;;;;;;;;;;-144.99;97.15;52441.97;5377600;26;19938;-70
2024/04/10 07:31:07;;;;;;;;;;;;;;;-144.99;97.60;52435.88;5375602;26;20006;-69
2024/04/10 07:33:36;;;;;;;;;;;;;;;-144.99;97.67;52439.94;5379196;26;19929;-70
2024/04/10 07:36:08;;;;;;;;;;;;;;;-144.99;98.02;52444.03;5398336;26;19963;-70
2024/04/10 07:38:40;;;;;;;;;;;;;;;-144.99;97.29;52435.88;5381365;26;19929;-70
2024/04/10 07:41:06;;;;;;;;;;;;;;;-144.99;95.62;52452.16;5377768;26;19929;-70
2024/04/10 07:43:36;;;;;;;;;;;;;;;-144.99;93.78;52419.56;5378213;26;20387;-70
2024/04/10 07:46:09;;;;;;;;;;;;;;;-144.99;91.18;52452.16;5401232;26;19930;-70
2024/04/10 07:48:38;;;;;;;;;;;;;;;-144.99;89.77;52415.47;5401753;26;20002;-70
2024/04/10 07:51:04;;;;;;;;;;;;;;;-144.99;87.97;52403.25;5426648;26;19921;-70
2024/04/10 07:53:33;;;;;;;;;;;;;;;-144.99;87.13;52452.16;5386649;26;19930;-69
2024/04/10 07:56:02;;;;;;;;;;;;;;;-144.99;86.00;52476.63;5393222;26;19929;-70
2024/04/10 07:58:31;;;;;;;;;;;;;;;-144.99;84.63;52444.03;5417320;26;19930;-70
2024/04/10 08:00:58;;;;;;;;;;;;;;;-144.99;82.62;52448.09;5409143;26;19975;-71
2024/04/10 08:03:28;;;;;;;;;;;;;;;-144.99;79.31;52448.09;5403045;26;19933;-71
2024/04/10 08:05:54;;;;;;;;;;;;;;;-144.99;79.83;52456.25;5405543;26;19929;-71
2024/04/10 08:08:23;;;;;;;;;;;;;;;-144.99;80.34;52437.91;5395569;26;19937;-71
2024/04/10 08:10:57;;;;;;;;;;;;;;;-144.99;79.89;52423.63;5395356;26;19929;-71
2024/04/10 08:13:28;;;;;;;;;;;;;;;-144.99;78.59;52476.63;5364713;26;19975;-71
2024/04/10 08:15:54;;;;;;;;;;;;;;;-144.99;78.22;52439.94;5376747;26;19937;-70
2024/04/10 08:18:22;;;;;;;;;;;;;;;-144.99;77.51;52425.66;5376212;26;19937;-70
2024/04/10 08:20:56;;;;;;;;;;;;;;;-144.99;76.22;52407.31;5376386;26;20351;-70
2024/04/10 08:23:25;;;;;;;;;;;;;;;-144.99;75.74;52456.25;5391389;26;19940;-70
2024/04/10 08:25:51;;;;;;;;;;;;;;;-144.99;75.76;52427.72;5376953;26;19930;-69
2024/04/10 08:28:20;;;;;;;;;;;;;;;-144.99;75.69;52448.09;5380080;26;20406;-70
2024/04/10 08:30:49;;;;;;;;;;;;;;;-144.99;76.27;52419.56;5394993;26;19930;-71
2024/04/10 08:33:18;;;;;;;;;;;;;;;-144.99;76.62;52452.16;5390145;26;19983;-71
2024/04/10 08:35:50;;;;;;;;;;;;;;;-144.99;76.84;52448.09;5380929;26;20239;-71
2024/04/10 08:38:19;;;;;;;;;;;;;;;-144.99;76.24;52429.75;5391071;26;19934;-70
2024/04/10 08:40:46;;;;;;;;;;;;;;;-144.99;75.86;52444.03;5388510;26;19933;-70
2024/04/10 08:43:16;;;;;;;;;;;;;;;-144.99;74.48;52452.16;5390087;26;19936;-70
2024/04/10 08:45:42;;;;;;;;;;;;;;;-144.99;72.53;52431.78;5376649;26;19930;-71
2024/04/10 08:48:14;;;;;;;;;;;;;;;-144.99;72.05;52421.59;5379199;26;19929;-71
2024/04/10 08:50:41;;;;;;;;;;;;;;;-144.99;72.74;52427.72;5394753;26;20529;-71
2024/04/10 08:53:10;;;;;;;;;;;;;;;-144.99;70.57;52403.25;5388325;26;19937;-71
2024/04/10 08:55:36;;;;;;;;;;;;;;;-144.99;70.06;52419.56;5391356;26;20458;-71
2024/04/10 08:58:05;;;;;;;;;;;;;;;-144.99;70.35;52423.63;5398304;26;19936;-70
2024/04/10 09:00:31;;;;;;;;;;;;;;;-144.99;69.75;52427.72;5379438;26;19929;-70
2024/04/10 09:03:00;;;;;;;;;;;;;;;-144.99;69.60;52419.56;5380565;26;19930;-71
2024/04/10 09:05:29;;;;;;;;;;;;;;;-144.99;69.78;52399.19;5363006;26;20264;-71
2024/04/10 09:08:01;;;;;;;;;;;;;;;-144.99;68.35;52395.09;5393991;26;20320;-70
2024/04/10 09:10:27;;;;;;;;;;;;;;;-144.99;68.89;52393.06;5376047;26;20309;-70
2024/04/10 09:13:04;;;;;;;;;;;;;;;-144.99;68.16;52399.19;5376143;26;19937;-70
2024/04/10 09:15:30;;;;;;;;;;;;;;;-144.99;67.48;52415.47;5367913;26;19940;-70
2024/04/10 09:17:58;;;;;;;;;;;;;;;-144.99;67.76;52417.53;5376240;26;19934;-71
2024/04/10 09:20:24;;;;;;;;;;;;;;;-144.99;68.57;52368.59;5391324;26;19929;-71
2024/04/10 09:23:04;;;;;;;;;;;;;;;-144.99;69.11;52386.94;5391019;26;19937;-70
2024/04/10 09:25:30;;;;;;;;;;;;;;;-144.99;68.13;52423.63;5387055;26;19936;-71
2024/04/10 09:28:02;;;;;;;;;;;;;;;-144.99;66.98;52386.94;5356276;26;19958;-69
2024/04/10 09:30:29;;;;;;;;;;;;;;;-144.99;66.75;52439.94;5370462;26;20109;-71
2024/04/10 09:32:57;;;;;;;;;;;;;;;-144.99;66.43;52407.31;5389300;26;20293;-71
2024/04/10 09:35:24;;;;;;;;;;;;;;;-144.99;66.69;52431.78;5376216;26;19929;-71
2024/04/10 09:37:54;;;;;;;;;;;;;;;-144.99;66.67;52395.09;5383309;26;19930;-71
2024/04/10 09:40:24;;;;;;;;;;;;;;;-144.99;65.66;52403.25;5395175;26;19929;-71
2024/04/10 09:42:52;;;;;;;;;;;;;;;-144.99;63.94;52366.56;5389456;26;19937;-70
2024/04/10 09:45:21;;;;;;;;;;;;;;;-144.99;62.24;52391.03;5385447;26;20340;-71
2024/04/10 09:47:53;;;;;;;;;;;;;;;-144.99;61.07;52380.84;5379595;26;19936;-71
2024/04/10 09:50:19;;;;;;;;;;;;;;;-144.99;60.37;52378.78;5396456;26;20005;-72
2024/04/10 09:52:49;;;;;;;;;;;;;;;-144.99;60.26;52380.84;5375558;26;19977;-72
2024/04/10 09:55:15;;;;;;;;;;;;;;;-144.99;59.85;52395.09;5400963;26;20369;-72
2024/04/10 09:57:47;;;;;;;;;;;;;;;-144.99;60.52;52342.09;5387268;26;19964;-73
2024/04/10 10:00:13;;;;;;;;;;;;;;;-144.99;58.58;52358.41;5390324;26;20006;-71
2024/04/10 10:02:42;;;;;;;;;;;;;;;-144.99;58.84;52309.50;5380088;26;19929;-72
2024/04/10 10:05:19;;;;;;;;;;;;;;;-144.99;57.96;52350.25;5393243;26;19930;-71
2024/04/10 10:07:47;;;;;;;;;;;;;;;-144.99;58.17;52342.09;5393213;26;19936;-71
2024/04/10 10:10:13;;;;;;;;;;;;;;;-144.99;58.48;52338.03;5388371;26;20712;-72
2024/04/10 10:12:41;;;;;;;;;;;;;;;-144.99;58.02;52342.09;5374585;26;19929;-71
2024/04/10 10:15:11;;;;;;;;;;;;;;;-144.99;57.67;52329.88;5376331;26;20372;-73
2024/04/10 10:17:40;;;;;;;;;;;;;;;-144.99;57.15;52313.56;5375344;26;19929;-72
2024/04/10 10:20:18;;;;;;;;;;;;;;;-144.99;57.78;52325.81;5375703;26;20016;-72
2024/04/10 10:22:47;;;;;;;;;;;;;;;-144.99;58.07;52356.38;5375330;26;19941;-72
2024/04/10 10:25:14;;;;;;;;;;;;;;;-144.99;57.49;52374.72;5385271;26;19940;-72
2024/04/10 10:27:42;;;;;;;;;;;;;;;-144.99;57.63;52358.41;5374743;26;19929;-72
2024/04/10 10:30:11;;;;;;;;;;;;;;;-144.99;59.26;52415.47;5389555;26;19929;-72
2024/04/10 10:32:40;;;;;;;;;;;;;;;-144.99;60.77;52431.78;5397212;26;19929;-72
2024/04/10 10:36:48;;;;;;;;;;;;;;;-144.99;63.08;52399.19;5568301;25;19928;-72
2024/04/10 10:39:15;;;;;;;;;;;;;;;-144.99;64.50;52399.19;5524776;25;19952;-72
2024/04/10 10:41:44;;;;;;;;;;;;;;;-144.99;63.81;52395.09;5503488;25;19987;-72
2024/04/10 10:44:10;;;;;;;;;;;;;;;-144.99;62.49;52325.81;5486498;25;20369;-72
2024/04/10 10:46:39;;;;;;;;;;;;;;;-144.99;60.75;52260.56;5472119;26;19928;-72
2024/04/10 10:49:04;;;;;;;;;;;;;;;-144.99;59.76;52256.50;5463127;21;20513;-70
2024/04/10 10:51:33;;;;;;;;;;;;;;;-144.99;57.96;52260.56;5409846;26;19945;-69
2024/04/10 10:54:03;;;;;;;;;;;;;;;-144.99;57.82;52248.34;5392714;26;19987;-69
2024/04/10 10:56:32;;;;;;;;;;;;;;;-144.99;55.37;52215.75;5393383;26;20441;-69
2024/04/10 10:59:07;;;;;;;;;;;;;;;-144.99;54.69;52174.97;5393672;26;19933;-69
2024/04/10 11:01:37;;;;;;;;;;;;;;;-144.99;53.80;52183.13;5391690;26;19930;-70
2024/04/10 11:04:06;;;;;;;;;;;;;;;-144.99;54.54;52297.25;5394024;26;19936;-70
2024/04/10 11:06:35;;;;;;;;;;;;;;;-144.99;54.89;52366.56;5391376;26;19964;-70
2024/04/10 11:09:09;;;;;;;;;;;;;;;-144.99;57.21;52413.44;5393199;26;19940;-70
2024/04/10 11:11:38;;;;;;;;;;;;;;;-144.99;58.07;52378.78;5392493;26;19936;-70
2024/04/10 11:14:04;;;;;;;;;;;;;;;-144.99;58.23;52183.13;5393063;26;19937;-70
2024/04/10 11:16:33;;;;;;;;;;;;;;;-144.99;56.50;52280.97;5393301;26;19937;-70
2024/04/10 11:19:00;;;;;;;;;;;;;;;-144.99;55.14;52256.50;5392213;26;20461;-70
2024/04/10 11:21:28;;;;;;;;;;;;;;;-144.99;54.88;52325.81;5392484;26;20224;-70
2024/04/10 11:23:54;;;;;;;;;;;;;;;-144.99;54.90;52187.19;5391795;26;19933;-70
2024/04/10 11:26:26;;;;;;;;;;;;;;;-144.99;54.61;52350.25;5391801;26;19936;-70
2024/04/10 11:28:53;;;;;;;;;;;;;;;-144.99;55.36;52391.03;5391959;26;19944;-70
2024/04/10 11:31:22;;;;;;;;;;;;;;;-144.99;55.79;52395.09;5392362;26;19937;-70
2024/04/10 11:33:48;;;;;;;;;;;;;;;-144.99;56.20;52203.50;5391993;26;19941;-70
2024/04/10 11:36:17;;;;;;;;;;;;;;;-144.99;54.65;52183.13;5392169;26;19999;-70
2024/04/10 11:38:43;;;;;;;;;;;;;;;-144.99;52.59;52197.41;5392175;26;19936;-69
2024/04/10 11:41:13;;;;;;;;;;;;;;;-144.99;51.96;52195.34;5391749;26;19938;-70
2024/04/10 11:43:41;;;;;;;;;;;;;;;-144.99;53.15;52197.41;5391314;26;20445;-70
2024/04/10 11:46:10;;;;;;;;;;;;;;;-144.99;53.78;52215.75;5386253;26;19929;-70
2024/04/10 11:48:36;;;;;;;;;;;;;;;-144.99;54.06;52207.59;5364320;26;20340;-70
2024/04/10 11:51:05;;;;;;;;;;;;;;;-144.99;55.12;52342.09;5375734;26;20064;-69
2024/04/10 11:53:33;;;;;;;;;;;;;;;-144.99;54.95;52195.34;5376230;26;19930;-69
2024/04/10 11:55:59;;;;;;;;;;;;;;;-144.99;54.25;52362.50;5375871;26;20201;-69
2024/04/10 11:58:28;;;;;;;;;;;;;;;-144.99;54.47;52201.47;5370212;26;19929;-69
2024/04/10 12:00:56;;;;;;;;;;;;;;;-144.99;53.68;52209.63;5376368;26;19929;-69
2024/04/10 12:03:25;;;;;;;;;;;;;;;-144.99;52.39;52207.59;5375728;26;19953;-69
2024/04/10 12:05:51;;;;;;;;;;;;;;;-144.99;51.99;52232.03;5376523;26;19936;-69
2024/04/10 12:08:22;;;;;;;;;;;;;;;-144.99;51.85;52301.34;5375537;26;19937;-69
2024/04/10 12:10:48;;;;;;;;;;;;;;;-144.99;51.92;52309.50;5376197;26;20263;-69
2024/04/10 12:13:16;;;;;;;;;;;;;;;-144.99;52.33;52338.03;5375690;26;20400;-70
2024/04/10 12:15:42;;;;;;;;;;;;;;;-144.99;52.61;52354.34;5376135;26;19937;-69
2024/04/10 12:18:13;;;;;;;;;;;;;;;-144.99;53.47;52382.88;5374801;26;20412;-69
2024/04/10 12:20:39;;;;;;;;;;;;;;;-144.99;54.20;52372.69;5375481;26;19930;-68
2024/04/10 12:23:08;;;;;;;;;;;;;;;-144.99;55.01;52415.47;5375276;26;19929;-68
2024/04/10 12:25:34;;;;;;;;;;;;;;;-144.99;55.48;52264.66;5375964;26;19929;-71
2024/04/10 12:28:02;;;;;;;;;;;;;;;-144.99;54.63;52217.78;5374683;26;20007;-68
2024/04/10 12:30:28;;;;;;;;;;;;;;;-144.99;54.11;52205.53;5375229;26;19949;-68